Time;durP1;ratioP1;P1;durP2;ratioP2;P2;SDS_P1;SDS_P2;PMS_P1;PMS_P2;Temp;Humidity;BMP_temperature;BMP_pressure;BME280_temperature;BME280_humidity;BME280_pressure;Samples;Min_cycle;Max_cycle;Signal;HPM_P1;HPM_P2
2024/03/16 00:01:11;;;;;;;6.35;1.35;;;12.80;99.90;;;;;;5040067;28;20041;-31
2024/03/16 00:03:37;;;;;;;5.60;1.45;;;12.80;99.90;;;;;;5040333;28;20232;-35
2024/03/16 00:06:02;;;;;;;5.03;1.27;;;12.80;99.90;;;;;;5040359;28;20036;-33
2024/03/16 00:08:28;;;;;;;3.90;1.30;;;12.80;99.90;;;;;;5040133;28;20052;-35
2024/03/16 00:10:54;;;;;;;3.97;1.38;;;12.80;99.90;;;;;;5040815;28;20132;-33
2024/03/16 00:13:19;;;;;;;4.28;1.60;;;12.80;99.90;;;;;;5040074;28;20055;-31
2024/03/16 00:15:49;;;;;;;3.92;1.60;;;12.80;99.90;;;;;;5040883;28;20128;-34
2024/03/16 00:18:15;;;;;;;5.32;2.20;;;12.80;99.90;;;;;;5040596;28;20064;-35
2024/03/16 00:20:40;;;;;;;6.45;1.48;;;12.80;99.90;;;;;;5039854;28;20136;-31
2024/03/16 00:23:07;;;;;;;5.20;1.63;;;12.80;99.90;;;;;;5040240;28;20083;-34
2024/03/16 00:25:33;;;;;;;4.60;1.50;;;12.80;99.90;;;;;;5040148;28;20032;-32
2024/03/16 00:27:59;;;;;;;4.45;1.75;;;12.80;99.90;;;;;;5040130;28;20029;-31
2024/03/16 00:30:25;;;;;;;4.88;1.98;;;12.80;99.90;;;;;;5040490;28;20029;-32
2024/03/16 00:32:51;;;;;;;5.15;1.80;;;12.80;99.90;;;;;;5041244;28;20741;-29
2024/03/16 00:35:17;;;;;;;5.13;1.90;;;12.80;99.90;;;;;;5040244;28;20107;-31
2024/03/16 00:37:43;;;;;;;3.33;1.70;;;12.80;99.90;;;;;;5040452;28;20013;-30
2024/03/16 00:40:09;;;;;;;5.90;1.80;;;12.80;99.90;;;;;;5040728;28;20040;-30
2024/03/16 00:42:35;;;;;;;7.68;2.05;;;12.80;99.90;;;;;;5039570;28;20029;-32
2024/03/16 00:45:03;;;;;;;5.85;1.85;;;12.70;99.90;;;;;;5040800;28;20033;-30
2024/03/16 00:47:31;;;;;;;6.97;2.50;;;12.60;99.90;;;;;;5039846;28;20024;-39
2024/03/16 00:49:57;;;;;;;5.45;1.90;;;12.50;99.90;;;;;;5040530;28;20064;-31
2024/03/16 00:52:22;;;;;;;6.90;2.15;;;12.50;99.90;;;;;;5039771;28;20124;-36
2024/03/16 00:54:51;;;;;;;4.88;1.75;;;12.40;99.90;;;;;;5040121;28;20056;-32
2024/03/16 00:57:16;;;;;;;4.57;2.10;;;12.30;99.90;;;;;;5039474;28;20032;-33
2024/03/16 00:59:42;;;;;;;6.07;1.75;;;12.30;99.90;;;;;;5039465;28;20047;-32
2024/03/16 01:02:10;;;;;;;6.35;2.28;;;12.30;99.90;;;;;;5039857;28;20032;-33
2024/03/16 01:04:36;;;;;;;5.57;2.20;;;12.30;99.90;;;;;;5039729;28;20036;-31
2024/03/16 01:07:11;;;;;;;6.07;2.38;;;12.20;99.90;;;;;;5040407;28;20429;-31
2024/03/16 01:09:36;;;;;;;6.07;2.40;;;12.20;99.90;;;;;;5039185;28;20087;-32
2024/03/16 01:12:02;;;;;;;6.40;2.22;;;12.20;99.90;;;;;;5040262;28;20037;-36
2024/03/16 01:14:28;;;;;;;7.43;2.45;;;12.20;99.90;;;;;;5040419;28;20067;-34
2024/03/16 01:16:54;;;;;;;6.50;2.33;;;12.20;99.90;;;;;;5039605;28;20140;-33
2024/03/16 01:19:20;;;;;;;8.23;2.70;;;12.20;99.90;;;;;;5039675;28;20037;-34
2024/03/16 01:21:45;;;;;;;5.10;2.30;;;12.10;99.90;;;;;;5040784;28;20040;-36
2024/03/16 01:24:11;;;;;;;4.80;2.40;;;12.10;99.90;;;;;;5039246;28;20108;-32
2024/03/16 01:26:36;;;;;;;5.47;2.83;;;12.10;99.90;;;;;;5040346;28;20078;-33
2024/03/16 01:29:03;;;;;;;4.45;2.45;;;12.10;99.90;;;;;;5040494;28;20519;-32
2024/03/16 01:31:29;;;;;;;5.18;2.70;;;12.10;99.90;;;;;;5039722;28;20029;-33
2024/03/16 01:33:55;;;;;;;4.20;2.58;;;12.10;99.90;;;;;;5040265;28;20595;-30
2024/03/16 01:36:21;;;;;;;5.55;2.80;;;12.10;99.90;;;;;;5039207;28;20037;-32
2024/03/16 01:38:46;;;;;;;8.45;4.05;;;12.10;99.90;;;;;;5039058;28;20419;-30
2024/03/16 01:41:12;;;;;;;7.85;3.47;;;12.10;99.90;;;;;;5039884;28;20033;-33
2024/03/16 01:43:38;;;;;;;5.72;3.42;;;12.10;99.90;;;;;;5039465;28;20147;-36
2024/03/16 01:46:04;;;;;;;6.03;3.20;;;12.10;99.90;;;;;;5038779;28;20036;-34
2024/03/16 01:48:30;;;;;;;6.80;3.85;;;12.00;99.90;;;;;;5038809;28;21014;-36
2024/03/16 01:50:56;;;;;;;5.57;3.10;;;12.00;99.90;;;;;;5039558;28;20036;-30
2024/03/16 01:53:21;;;;;;;6.90;3.08;;;12.00;99.90;;;;;;5037865;28;20032;-32
2024/03/16 01:55:47;;;;;;;8.10;3.33;;;12.00;99.90;;;;;;5039960;28;20021;-35
2024/03/16 01:58:13;;;;;;;9.45;3.42;;;12.00;99.90;;;;;;5039413;28;20025;-32
2024/03/16 02:00:39;;;;;;;6.93;4.20;;;12.00;99.90;;;;;;5038310;28;20036;-35
2024/03/16 02:03:07;;;;;;;5.90;3.53;;;12.00;99.90;;;;;;5040000;28;20021;-33
2024/03/16 02:05:36;;;;;;;5.35;3.25;;;12.00;99.90;;;;;;5038780;28;20082;-33
2024/03/16 02:08:01;;;;;;;6.35;3.55;;;12.00;99.90;;;;;;5039856;28;20065;-33
2024/03/16 02:10:27;;;;;;;7.88;4.10;;;12.00;99.90;;;;;;5039880;28;20113;-33
2024/03/16 02:12:52;;;;;;;8.00;3.70;;;12.00;99.90;;;;;;5042594;28;20036;-33
2024/03/16 02:15:18;;;;;;;6.70;3.67;;;12.00;99.90;;;;;;5042281;28;20131;-34
2024/03/16 02:17:45;;;;;;;7.68;3.40;;;11.90;99.90;;;;;;5043433;28;20037;-34
2024/03/16 02:20:15;;;;;;;6.18;3.47;;;11.90;99.90;;;;;;5042450;28;20025;-35
2024/03/16 02:22:41;;;;;;;7.45;3.60;;;11.90;99.90;;;;;;5043129;28;20032;-33
2024/03/16 02:25:10;;;;;;;7.90;3.97;;;11.90;99.90;;;;;;5043038;28;20036;-31
2024/03/16 02:27:36;;;;;;;6.13;3.97;;;11.90;99.90;;;;;;5042540;28;20661;-30
2024/03/16 02:30:02;;;;;;;6.78;3.28;;;11.90;99.90;;;;;;5042954;28;20033;-30
2024/03/16 02:32:28;;;;;;;7.68;3.78;;;11.90;99.90;;;;;;5042241;28;20027;-33
2024/03/16 02:34:53;;;;;;;8.20;3.95;;;11.80;99.90;;;;;;5042923;28;20032;-36
2024/03/16 02:37:19;;;;;;;10.55;4.28;;;11.90;99.90;;;;;;5042155;28;20032;-33
2024/03/16 02:39:45;;;;;;;7.88;4.20;;;11.80;99.90;;;;;;5043107;28;20139;-32
2024/03/16 02:42:11;;;;;;;8.75;4.03;;;11.80;99.90;;;;;;5042183;28;20496;-35
2024/03/16 02:44:37;;;;;;;9.18;4.78;;;11.80;99.90;;;;;;5042473;28;20025;-34
2024/03/16 02:47:02;;;;;;;8.73;4.85;;;11.80;99.90;;;;;;5042862;28;20103;-33
2024/03/16 02:49:28;;;;;;;8.95;5.50;;;11.80;99.90;;;;;;5042233;28;20029;-31
2024/03/16 02:51:53;;;;;;;13.32;6.07;;;11.90;99.90;;;;;;5043295;28;20098;-35
2024/03/16 02:54:19;;;;;;;9.35;5.57;;;11.80;99.90;;;;;;5042210;28;20036;-36
2024/03/16 02:56:45;;;;;;;16.35;6.28;;;11.80;99.90;;;;;;5041853;28;20021;-35
2024/03/16 02:59:11;;;;;;;11.30;5.85;;;11.70;99.90;;;;;;5042555;28;20025;-35
2024/03/16 03:01:37;;;;;;;13.30;5.38;;;11.70;99.90;;;;;;5041935;28;20888;-36
2024/03/16 03:04:05;;;;;;;12.43;5.25;;;11.70;99.90;;;;;;5042217;28;20029;-37
2024/03/16 03:06:31;;;;;;;11.15;5.20;;;11.70;99.90;;;;;;5042212;28;20021;-35
2024/03/16 03:08:57;;;;;;;10.30;4.10;;;11.60;99.90;;;;;;5041358;28;20563;-35
2024/03/16 03:11:25;;;;;;;7.82;3.90;;;11.60;99.90;;;;;;5040265;28;20215;-34
2024/03/16 03:13:50;;;;;;;4.80;3.10;;;11.60;99.90;;;;;;5042385;28;20052;-36
2024/03/16 03:16:19;;;;;;;5.57;2.88;;;11.50;99.90;;;;;;5041081;28;20107;-34
2024/03/16 03:18:50;;;;;;;7.28;2.85;;;11.40;99.90;;;;;;5042012;28;20139;-34
2024/03/16 03:21:16;;;;;;;6.68;2.40;;;11.30;99.90;;;;;;5041516;28;20036;-36
2024/03/16 03:23:42;;;;;;;5.13;1.95;;;11.30;99.90;;;;;;5041006;28;20116;-33
2024/03/16 03:26:09;;;;;;;3.33;2.00;;;11.20;99.90;;;;;;5042043;28;20036;-35
2024/03/16 03:28:35;;;;;;;3.38;1.70;;;11.20;99.90;;;;;;5041377;28;20128;-36
2024/03/16 03:31:02;;;;;;;3.10;1.83;;;11.20;99.90;;;;;;5041075;28;20064;-36
2024/03/16 03:33:28;;;;;;;3.63;1.80;;;11.20;99.90;;;;;;5041545;28;20672;-32
2024/03/16 03:35:53;;;;;;;2.53;1.70;;;11.20;99.90;;;;;;5041702;28;20029;-34
2024/03/16 03:38:19;;;;;;;4.03;1.30;;;11.10;99.90;;;;;;5040016;28;20033;-36
2024/03/16 03:40:45;;;;;;;2.83;1.55;;;11.10;99.90;;;;;;5042075;28;20037;-34
2024/03/16 03:43:17;;;;;;;3.10;1.73;;;11.10;99.90;;;;;;5040901;28;20032;-32
2024/03/16 03:48:49;;;;;;;3.83;1.58;;;11.00;99.90;;;;;;5035807;28;19974;-35
2024/03/16 03:51:00;;;;;;;4.85;1.70;;;11.00;99.90;;;;;;5022987;28;20091;-32
2024/03/16 03:53:29;;;;;;;3.33;1.70;;;11.00;99.90;;;;;;5036057;28;20076;-32
2024/03/16 03:55:54;;;;;;;4.40;1.75;;;10.90;99.90;;;;;;5041763;28;20025;-37
2024/03/16 03:58:21;;;;;;;2.22;1.60;;;10.90;99.90;;;;;;5040218;28;20090;-34
2024/03/16 04:00:47;;;;;;;2.67;1.77;;;10.90;99.90;;;;;;5041234;28;20028;-33
2024/03/16 04:03:13;;;;;;;5.90;2.10;;;10.90;99.90;;;;;;5041250;28;20021;-33
2024/03/16 04:05:39;;;;;;;2.65;2.10;;;10.80;99.90;;;;;;5040598;28;20033;-33
2024/03/16 04:08:06;;;;;;;4.68;2.33;;;10.80;99.90;;;;;;5041051;28;20063;-36
2024/03/16 04:10:32;;;;;;;2.20;2.00;;;10.80;99.90;;;;;;5041520;28;20025;-34
2024/03/16 04:12:58;;;;;;;4.15;2.47;;;10.80;99.90;;;;;;5040665;28;20044;-37
2024/03/16 04:15:24;;;;;;;3.95;2.65;;;10.70;99.90;;;;;;5040594;28;20555;-31
2024/03/16 04:17:50;;;;;;;3.30;2.60;;;10.70;99.90;;;;;;5040992;28;20033;-34
2024/03/16 04:20:17;;;;;;;2.92;2.72;;;10.60;99.90;;;;;;5039895;28;20800;-33
2024/03/16 04:22:46;;;;;;;2.28;2.08;;;10.40;99.90;;;;;;5040793;28;20086;-35
2024/03/16 04:25:12;;;;;;;2.95;1.60;;;10.30;99.90;;;;;;5040507;28;20031;-34
2024/03/16 04:27:39;;;;;;;2.38;1.80;;;10.20;99.90;;;;;;5039660;28;20021;-33
2024/03/16 04:30:09;;;;;;;2.33;1.60;;;10.20;99.90;;;;;;5040429;28;20134;-33
2024/03/16 04:32:35;;;;;;;2.38;1.30;;;10.10;99.90;;;;;;5039783;28;20109;-33
2024/03/16 04:35:01;;;;;;;1.27;1.10;;;10.00;99.90;;;;;;5039619;28;20838;-35
2024/03/16 04:37:27;;;;;;;1.88;1.48;;;9.90;99.90;;;;;;5040213;28;20017;-32
2024/03/16 04:39:56;;;;;;;1.55;1.20;;;9.80;99.90;;;;;;5040893;28;20517;-31
2024/03/16 04:42:22;;;;;;;1.38;1.10;;;9.80;99.90;;;;;;5039188;28;20510;-34
2024/03/16 04:44:47;;;;;;;1.65;1.15;;;9.80;99.90;;;;;;5040429;28;20017;-37
2024/03/16 04:47:13;;;;;;;2.03;1.10;;;9.90;99.90;;;;;;5040730;28;20028;-35
2024/03/16 04:49:42;;;;;;;2.35;1.17;;;9.80;99.90;;;;;;5039614;28;20099;-33
2024/03/16 04:52:07;;;;;;;3.40;1.08;;;9.90;99.90;;;;;;5040023;28;20035;-37
2024/03/16 04:54:33;;;;;;;2.97;1.20;;;9.90;99.90;;;;;;5039630;28;20025;-33
2024/03/16 04:57:01;;;;;;;1.17;0.80;;;9.90;99.90;;;;;;5040563;28;20029;-35
2024/03/16 04:59:26;;;;;;;2.83;1.10;;;9.90;99.90;;;;;;5039839;28;20124;-34
2024/03/16 05:01:52;;;;;;;3.13;1.40;;;10.00;99.90;;;;;;5039656;28;20530;-34
2024/03/16 05:04:18;;;;;;;2.28;0.80;;;10.00;99.90;;;;;;5039228;28;20032;-34
2024/03/16 05:06:43;;;;;;;1.08;0.77;;;10.00;99.90;;;;;;5040319;28;20021;-33
2024/03/16 05:09:12;;;;;;;1.85;1.00;;;10.00;99.90;;;;;;5039495;28;20060;-36
2024/03/16 05:11:38;;;;;;;3.90;1.33;;;10.10;99.90;;;;;;5039746;28;20349;-33
2024/03/16 05:14:07;;;;;;;1.70;1.10;;;10.10;99.90;;;;;;5040294;28;20472;-33
2024/03/16 05:16:33;;;;;;;2.28;1.10;;;10.10;99.90;;;;;;5039194;28;20039;-34
2024/03/16 05:19:02;;;;;;;3.92;1.55;;;10.10;99.90;;;;;;5039952;28;20029;-33
2024/03/16 05:21:28;;;;;;;3.22;1.40;;;10.10;99.90;;;;;;5039116;28;20047;-35
2024/03/16 05:23:54;;;;;;;1.55;1.17;;;10.10;99.90;;;;;;5039862;28;20032;-34
2024/03/16 05:26:20;;;;;;;2.70;1.38;;;10.10;99.90;;;;;;5039224;28;20033;-34
2024/03/16 05:28:45;;;;;;;2.40;1.00;;;10.10;99.90;;;;;;5039713;28;20024;-33
2024/03/16 05:31:11;;;;;;;1.98;1.20;;;10.00;99.90;;;;;;5039307;28;20037;-31
2024/03/16 05:33:37;;;;;;;3.10;1.05;;;10.00;99.90;;;;;;5039996;28;20029;-35
2024/03/16 05:36:05;;;;;;;5.38;1.60;;;10.00;99.90;;;;;;5040212;28;20086;-31
2024/03/16 05:38:32;;;;;;;5.13;1.35;;;9.90;99.90;;;;;;5039198;28;20024;-34
2024/03/16 05:40:58;;;;;;;2.08;1.30;;;9.80;99.90;;;;;;5039280;28;20037;-34
2024/03/16 05:43:24;;;;;;;2.00;1.30;;;9.70;99.90;;;;;;5040085;28;20353;-36
2024/03/16 05:45:51;;;;;;;3.03;1.30;;;9.70;99.90;;;;;;5042933;28;20107;-33
2024/03/16 05:48:17;;;;;;;3.83;1.20;;;9.60;99.90;;;;;;5043047;28;20021;-36
2024/03/16 05:50:43;;;;;;;1.45;0.90;;;9.60;99.90;;;;;;5042973;28;20082;-35
2024/03/16 05:53:11;;;;;;;1.52;1.00;;;9.50;99.90;;;;;;5042650;28;20479;-35
2024/03/16 05:55:43;;;;;;;3.65;1.27;;;9.50;99.90;;;;;;5043374;28;20033;-36
2024/03/16 05:58:08;;;;;;;2.35;1.10;;;9.60;99.90;;;;;;5042893;28;20495;-35
2024/03/16 06:00:40;;;;;;;1.67;1.20;;;9.60;99.90;;;;;;5043719;28;20135;-32
2024/03/16 06:03:05;;;;;;;1.38;1.00;;;9.60;99.90;;;;;;5043749;28;20040;-37
2024/03/16 06:05:37;;;;;;;2.75;1.00;;;9.60;99.90;;;;;;5043064;28;20052;-33
2024/03/16 06:08:16;;;;;;;1.50;0.97;;;9.50;99.90;;;;;;5043442;28;20818;-35
2024/03/16 06:10:42;;;;;;;4.05;0.90;;;9.50;99.90;;;;;;5024015;28;20029;-35
2024/03/16 06:13:10;;;;;;;2.45;0.90;;;9.40;99.90;;;;;;5038325;28;20036;-35
2024/03/16 06:15:36;;;;;;;4.10;1.15;;;9.40;99.90;;;;;;5043911;28;20116;-34
2024/03/16 06:18:03;;;;;;;4.22;0.90;;;9.30;99.90;;;;;;5043547;28;20118;-32
2024/03/16 06:20:34;;;;;;;2.90;0.90;;;9.20;99.90;;;;;;5042109;28;20792;-34
2024/03/16 06:23:00;;;;;;;4.38;1.00;;;9.10;99.90;;;;;;5043052;28;20036;-34
2024/03/16 06:25:29;;;;;;;2.45;0.73;;;9.00;99.90;;;;;;5042777;28;20021;-34
2024/03/16 06:27:55;;;;;;;1.98;0.60;;;8.90;99.90;;;;;;5042345;28;20033;-31
2024/03/16 06:30:27;;;;;;;2.95;1.08;;;8.80;99.90;;;;;;5042878;28;20060;-32
2024/03/16 06:33:05;;;;;;;1.90;0.63;;;8.80;99.90;;;;;;5042852;28;20112;-35
2024/03/16 06:35:41;;;;;;;0.77;0.60;;;8.80;99.90;;;;;;5042428;28;20032;-31
2024/03/16 06:38:07;;;;;;;0.73;0.43;;;8.90;99.90;;;;;;5042702;28;20028;-37
2024/03/16 06:40:33;;;;;;;1.05;0.40;;;8.90;99.90;;;;;;5042264;28;20037;-32
2024/03/16 06:42:58;;;;;;;2.17;0.50;;;8.90;99.90;;;;;;5042820;28;20025;-33
2024/03/16 06:45:24;;;;;;;2.75;0.63;;;8.90;99.90;;;;;;5042078;28;20646;-31
2024/03/16 06:47:49;;;;;;;1.98;0.60;;;8.90;99.90;;;;;;5041764;28;20032;-33
2024/03/16 06:50:15;;;;;;;3.83;0.82;;;9.00;99.90;;;;;;5042959;28;20072;-34
2024/03/16 06:52:47;;;;;;;1.88;0.90;;;8.90;99.90;;;;;;5042506;28;20067;-30
2024/03/16 06:55:13;;;;;;;1.52;0.50;;;8.90;99.90;;;;;;5041145;28;20322;-34
2024/03/16 06:57:38;;;;;;;2.00;0.60;;;8.90;99.90;;;;;;5041914;28;20686;-30
2024/03/16 07:00:09;;;;;;;3.60;1.00;;;8.90;99.90;;;;;;5042188;28;20029;-34
2024/03/16 07:02:34;;;;;;;2.15;0.82;;;9.00;99.90;;;;;;5042724;28;20037;-32
2024/03/16 07:05:00;;;;;;;4.40;0.85;;;9.00;99.90;;;;;;5042078;28;20403;-36
2024/03/16 07:07:26;;;;;;;3.70;1.00;;;9.00;99.90;;;;;;5042137;28;20056;-33
2024/03/16 07:09:52;;;;;;;5.00;0.90;;;9.00;99.90;;;;;;5041837;28;20132;-30
2024/03/16 07:12:18;;;;;;;2.65;0.73;;;9.10;99.90;;;;;;5042425;28;20453;-30
2024/03/16 07:14:43;;;;;;;3.95;0.98;;;9.10;99.90;;;;;;5042444;28;20025;-31
2024/03/16 07:17:09;;;;;;;3.97;0.90;;;9.10;99.90;;;;;;5041648;28;20029;-33
2024/03/16 07:19:35;;;;;;;2.38;1.00;;;9.10;99.90;;;;;;5041698;28;20111;-35
2024/03/16 07:22:00;;;;;;;4.28;0.98;;;9.20;99.90;;;;;;5042204;28;20040;-34
2024/03/16 07:24:26;;;;;;;6.80;1.27;;;9.20;99.90;;;;;;5042032;28;20224;-31
2024/03/16 07:26:52;;;;;;;3.65;0.80;;;9.20;99.90;;;;;;5042558;28;20210;-30
2024/03/16 07:29:17;;;;;;;3.50;1.00;;;9.20;99.90;;;;;;5040730;28;20844;-32
2024/03/16 07:31:43;;;;;;;2.47;0.95;;;9.20;99.90;;;;;;5041385;28;20374;-35
2024/03/16 07:34:09;;;;;;;2.10;0.68;;;9.20;99.90;;;;;;5041916;28;20017;-35
2024/03/16 07:36:34;;;;;;;5.75;1.27;;;9.30;99.90;;;;;;5041082;28;20112;-34
2024/03/16 07:39:00;;;;;;;5.32;1.10;;;9.30;99.90;;;;;;5042100;28;20024;-35
2024/03/16 07:41:25;;;;;;;3.58;1.00;;;9.30;99.90;;;;;;5041556;28;20041;-33
2024/03/16 07:43:51;;;;;;;4.22;0.90;;;9.30;99.90;;;;;;5041244;28;20017;-34
2024/03/16 07:46:19;;;;;;;3.00;1.05;;;9.40;99.90;;;;;;5041768;28;20457;-34
2024/03/16 07:48:45;;;;;;;3.63;0.93;;;9.50;99.90;;;;;;5041643;28;20068;-30
2024/03/16 07:51:13;;;;;;;4.85;1.63;;;9.50;99.90;;;;;;5040369;28;20112;-37
2024/03/16 07:53:38;;;;;;;2.88;1.00;;;9.50;99.90;;;;;;5041460;28;20036;-32
2024/03/16 07:56:04;;;;;;;5.93;1.20;;;9.50;99.90;;;;;;5040685;28;20025;-32
2024/03/16 07:58:30;;;;;;;7.38;1.33;;;9.50;99.90;;;;;;5040587;28;20106;-30
2024/03/16 08:00:59;;;;;;;6.35;1.55;;;9.60;99.90;;;;;;5040962;28;20044;-32
2024/03/16 08:03:26;;;;;;;6.78;1.40;;;9.60;99.90;;;;;;5040630;28;20033;-31
2024/03/16 08:05:52;;;;;;;5.32;1.20;;;9.50;99.90;;;;;;5040584;28;20040;-34
2024/03/16 08:08:17;;;;;;;7.32;1.02;;;9.30;99.90;;;;;;5040627;28;20033;-33
2024/03/16 08:10:43;;;;;;;3.25;1.10;;;9.30;99.90;;;;;;5041072;28;20025;-35
2024/03/16 08:13:08;;;;;;;2.78;1.20;;;9.40;99.90;;;;;;5039797;28;20518;-33
2024/03/16 08:15:34;;;;;;;3.17;1.17;;;9.40;99.90;;;;;;5040682;28;20834;-32
2024/03/16 08:18:04;;;;;;;3.03;1.00;;;9.40;99.90;;;;;;5040719;28;20037;-34
2024/03/16 08:20:32;;;;;;;8.13;1.50;;;9.40;99.90;;;;;;5040242;28;20090;-33
2024/03/16 08:22:58;;;;;;;6.63;1.50;;;9.40;99.90;;;;;;5040346;28;20021;-35
2024/03/16 08:25:23;;;;;;;4.45;1.38;;;9.50;99.90;;;;;;5040568;28;20490;-34
2024/03/16 08:27:49;;;;;;;5.25;1.48;;;9.50;99.90;;;;;;5041183;28;20468;-33
2024/03/16 08:30:15;;;;;;;5.00;1.13;;;9.50;99.90;;;;;;5041043;28;20474;-35
2024/03/16 08:32:40;;;;;;;5.75;1.30;;;9.60;99.90;;;;;;5039529;28;20033;-34
2024/03/16 08:35:06;;;;;;;5.75;1.33;;;9.70;99.90;;;;;;5040619;28;20075;-36
2024/03/16 08:37:32;;;;;;;11.65;1.65;;;9.70;99.90;;;;;;5040272;28;20460;-30
2024/03/16 08:39:58;;;;;;;4.55;1.20;;;9.70;99.90;;;;;;5040085;28;20039;-34
2024/03/16 08:42:23;;;;;;;4.63;1.00;;;9.70;99.90;;;;;;5040351;28;20036;-34
2024/03/16 08:44:49;;;;;;;2.85;1.20;;;9.70;99.90;;;;;;5039969;28;20021;-34
2024/03/16 08:47:14;;;;;;;8.63;1.60;;;9.80;99.90;;;;;;5039099;28;20025;-30
2024/03/16 08:49:40;;;;;;;8.05;1.67;;;9.90;99.90;;;;;;5039658;28;20063;-33
2024/03/16 08:52:06;;;;;;;3.53;1.10;;;10.00;99.90;;;;;;5039681;28;20136;-31
2024/03/16 08:54:32;;;;;;;6.53;1.60;;;10.10;99.90;;;;;;5039091;28;20802;-35
2024/03/16 08:56:58;;;;;;;13.52;2.15;;;10.10;99.90;;;;;;5040158;28;20021;-33
2024/03/16 08:59:24;;;;;;;8.98;1.70;;;10.20;99.90;;;;;;5039875;28;20110;-33
2024/03/16 09:01:52;;;;;;;4.38;1.30;;;10.20;99.90;;;;;;5039602;28;20041;-36
2024/03/16 09:04:18;;;;;;;4.93;1.20;;;10.20;99.90;;;;;;5040135;28;20036;-30
2024/03/16 09:06:44;;;;;;;4.65;1.20;;;10.20;99.90;;;;;;5041237;28;20028;-36
2024/03/16 09:09:15;;;;;;;5.93;1.40;;;10.10;99.90;;;;;;5038544;28;20049;-35
2024/03/16 09:11:43;;;;;;;5.07;1.30;;;10.10;99.90;;;;;;5040170;28;20046;-35
2024/03/16 09:14:09;;;;;;;2.75;1.05;;;10.20;99.90;;;;;;5039162;28;20029;-33
2024/03/16 09:16:36;;;;;;;5.13;1.20;;;10.20;99.90;;;;;;5038971;28;20021;-33
2024/03/16 09:19:02;;;;;;;6.22;1.20;;;10.20;99.90;;;;;;5039801;28;20028;-33
2024/03/16 09:21:28;;;;;;;5.15;1.50;;;10.30;99.90;;;;;;5039428;28;20037;-33
2024/03/16 09:23:54;;;;;;;3.22;1.20;;;10.30;99.90;;;;;;5039274;28;20082;-34
2024/03/16 09:26:20;;;;;;;5.25;1.35;;;10.40;99.90;;;;;;5039224;28;20028;-30
2024/03/16 09:28:46;;;;;;;6.45;1.13;;;10.40;99.90;;;;;;5038462;28;20491;-31
2024/03/16 09:31:11;;;;;;;7.85;1.75;;;10.50;99.90;;;;;;5039240;28;20820;-32
2024/03/16 09:33:37;;;;;;;7.53;1.45;;;10.50;99.90;;;;;;5039561;28;20041;-30
2024/03/16 09:36:04;;;;;;;3.15;1.30;;;10.50;99.90;;;;;;5039101;28;20083;-33
2024/03/16 09:38:29;;;;;;;5.43;1.30;;;10.40;99.90;;;;;;5039884;28;20087;-35
2024/03/16 09:40:58;;;;;;;5.07;1.00;;;10.40;99.90;;;;;;5039848;28;20029;-34
2024/03/16 09:43:24;;;;;;;1.65;0.80;;;10.40;99.90;;;;;;5038284;28;20031;-35
2024/03/16 09:45:53;;;;;;;2.05;0.65;;;10.40;99.90;;;;;;5037886;28;20029;-36
2024/03/16 09:48:19;;;;;;;2.50;0.82;;;10.50;99.90;;;;;;5039581;28;20108;-31
2024/03/16 09:50:49;;;;;;;3.92;0.85;;;10.50;99.90;;;;;;5039158;28;20025;-33
2024/03/16 09:53:28;;;;;;;4.72;0.95;;;10.50;99.90;;;;;;5039536;28;20029;-36
2024/03/16 09:55:57;;;;;;;4.25;1.02;;;10.40;99.90;;;;;;5039441;28;20033;-33
2024/03/16 09:58:23;;;;;;;1.83;0.82;;;10.40;99.90;;;;;;5038703;28;20052;-32
2024/03/16 10:00:53;;;;;;;2.35;0.50;;;10.30;99.90;;;;;;5039686;28;20036;-33
2024/03/16 10:03:19;;;;;;;0.93;0.60;;;10.40;99.90;;;;;;5019787;28;20040;-37
2024/03/16 10:05:45;;;;;;;3.10;0.90;;;10.40;99.90;;;;;;5033508;28;20786;-36
2024/03/16 10:08:17;;;;;;;4.93;1.10;;;10.40;99.90;;;;;;5039038;28;20044;-33
2024/03/16 10:10:43;;;;;;;4.25;1.10;;;10.50;99.90;;;;;;5039314;28;20047;-36
2024/03/16 10:13:11;;;;;;;1.77;0.80;;;10.60;99.90;;;;;;5038670;28;20032;-36
2024/03/16 10:15:45;;;;;;;2.78;0.80;;;10.70;99.90;;;;;;5039363;28;20028;-35
2024/03/16 10:18:14;;;;;;;3.03;0.73;;;10.60;99.90;;;;;;5038906;28;20017;-33
2024/03/16 10:20:42;;;;;;;1.75;0.80;;;10.60;99.90;;;;;;5039135;28;20043;-37
2024/03/16 10:23:15;;;;;;;2.72;0.77;;;10.60;99.90;;;;;;5039062;28;20514;-33
2024/03/16 10:25:44;;;;;;;;;;;10.70;99.90;;;;;;5039884;28;20024;-33
2024/03/16 10:28:14;;;;;;;3.22;0.60;;;10.70;99.90;;;;;;5038795;28;20026;-35
2024/03/16 10:30:40;;;;;;;3.38;0.90;;;10.70;99.90;;;;;;5039326;28;20036;-32
2024/03/16 10:33:06;;;;;;;3.63;0.98;;;10.80;99.90;;;;;;5041849;28;20429;-33
2024/03/16 10:35:34;;;;;;;3.70;1.02;;;10.80;99.90;;;;;;5042605;28;20029;-35
2024/03/16 10:38:02;;;;;;;4.95;0.82;;;10.80;99.90;;;;;;5042491;28;20468;-33
2024/03/16 10:40:28;;;;;;;2.95;0.80;;;10.80;99.90;;;;;;5041752;28;20041;-32
2024/03/16 10:42:55;;;;;;;0.98;0.50;;;10.80;99.90;;;;;;5042941;28;20141;-34
2024/03/16 10:45:20;;;;;;;1.88;0.50;;;10.90;99.90;;;;;;5042218;28;20029;-33
2024/03/16 10:47:52;;;;;;;1.67;0.70;;;10.90;99.90;;;;;;5041795;28;20021;-31
2024/03/16 10:50:21;;;;;;;1.85;0.70;;;10.90;99.90;;;;;;5042039;28;20531;-35
2024/03/16 10:52:51;;;;;;;1.73;0.60;;;10.90;99.90;;;;;;5042746;28;20115;-32
2024/03/16 10:55:22;;;;;;;3.67;0.95;;;10.90;99.90;;;;;;5042068;28;20231;-35
2024/03/16 10:57:49;;;;;;;2.63;0.60;;;10.90;99.90;;;;;;5042323;28;20462;-35
2024/03/16 11:00:35;;;;;;;1.90;0.70;;;11.00;99.90;;;;;;5042349;28;20078;-34
2024/03/16 11:03:09;;;;;;;2.30;0.70;;;11.10;99.90;;;;;;5042173;28;20049;-33
2024/03/16 11:05:36;;;;;;;2.60;0.80;;;11.10;99.90;;;;;;5042542;28;20036;-37
2024/03/16 11:08:14;;;;;;;3.15;0.80;;;11.20;99.90;;;;;;5042053;28;20040;-33
2024/03/16 11:10:41;;;;;;;2.40;0.73;;;11.30;99.90;;;;;;5022374;28;20481;-35
2024/03/16 11:13:19;;;;;;;3.10;0.60;;;11.40;99.90;;;;;;5036700;28;20025;-33
2024/03/16 11:15:45;;;;;;;2.33;0.75;;;11.50;99.90;;;;;;5021952;28;20025;-34
2024/03/16 11:18:20;;;;;;;2.38;0.68;;;11.50;99.90;;;;;;5035411;28;20032;-31
2024/03/16 11:20:50;;;;;;;2.85;1.23;;;11.50;99.90;;;;;;5041764;28;20065;-32
2024/03/16 11:23:30;;;;;;;2.30;0.90;;;11.60;99.90;;;;;;5041164;28;20021;-35
2024/03/16 11:25:56;;;;;;;4.22;1.08;;;11.50;99.90;;;;;;5041799;28;20709;-34
2024/03/16 11:28:23;;;;;;;2.97;0.88;;;11.50;99.90;;;;;;5040794;28;20029;-34
2024/03/16 11:30:52;;;;;;;3.00;0.85;;;11.40;99.90;;;;;;5042193;28;20059;-37
2024/03/16 11:33:24;;;;;;;1.10;0.50;;;11.40;99.90;;;;;;5041078;28;20021;-31
2024/03/16 11:35:54;;;;;;;3.80;0.60;;;11.40;99.90;;;;;;5041063;28;20033;-35
2024/03/16 11:38:22;;;;;;;3.65;1.35;;;11.60;99.90;;;;;;5041104;28;20048;-34
2024/03/16 11:40:49;;;;;;;2.28;0.68;;;11.60;99.90;;;;;;5041350;28;20473;-32
2024/03/16 11:43:15;;;;;;;3.30;0.70;;;11.60;99.90;;;;;;5040016;28;20036;-33
2024/03/16 11:45:49;;;;;;;4.00;1.02;;;11.60;99.90;;;;;;5041171;28;20823;-34
2024/03/16 11:48:16;;;;;;;2.63;1.10;;;11.50;99.90;;;;;;5041179;28;20017;-35
2024/03/16 11:50:43;;;;;;;4.20;1.02;;;11.40;99.90;;;;;;5040802;28;20021;-36
2024/03/16 11:53:09;;;;;;;3.13;1.08;;;11.30;99.90;;;;;;5041172;28;20029;-34
2024/03/16 11:55:36;;;;;;;1.52;0.90;;;11.30;99.90;;;;;;5041518;28;20028;-33
2024/03/16 11:58:09;;;;;;;3.03;1.00;;;11.30;99.90;;;;;;5040666;28;20120;-33
2024/03/16 12:00:37;;;;;;;3.72;1.23;;;11.40;99.90;;;;;;5038324;28;20421;-30
2024/03/16 12:03:08;;;;;;;2.03;0.80;;;11.40;99.90;;;;;;5041277;28;20037;-33
2024/03/16 12:05:35;;;;;;;3.55;1.02;;;11.40;99.90;;;;;;5039905;28;20020;-31
2024/03/16 12:08:04;;;;;;;3.25;0.60;;;11.50;99.90;;;;;;5040320;28;20048;-35
2024/03/16 12:10:31;;;;;;;2.28;0.77;;;11.50;99.90;;;;;;5040189;28;20044;-34
2024/03/16 12:12:57;;;;;;;2.92;0.88;;;11.60;99.90;;;;;;5040945;28;20446;-36
2024/03/16 12:15:24;;;;;;;2.78;0.77;;;11.60;99.90;;;;;;5040013;28;20875;-34
2024/03/16 12:17:51;;;;;;;2.38;0.85;;;11.70;99.90;;;;;;5041031;28;20823;-35
2024/03/16 12:20:16;;;;;;;1.42;0.68;;;11.70;99.90;;;;;;5040681;28;20039;-31
2024/03/16 12:22:57;;;;;;;1.85;0.80;;;11.70;99.90;;;;;;5040298;28;20045;-33
2024/03/16 12:25:27;;;;;;;2.50;0.70;;;11.70;99.90;;;;;;5039209;28;20025;-35
2024/03/16 12:27:53;;;;;;;2.63;0.68;;;11.80;99.90;;;;;;5041267;28;20037;-36
2024/03/16 12:30:19;;;;;;;1.48;0.80;;;11.80;99.90;;;;;;5040080;28;20029;-32
2024/03/16 12:32:44;;;;;;;3.05;0.75;;;11.80;99.90;;;;;;5040961;28;20041;-33
2024/03/16 12:35:10;;;;;;;3.75;0.73;;;11.80;99.90;;;;;;5040153;28;20029;-32
2024/03/16 12:37:39;;;;;;;2.10;0.70;;;11.70;99.90;;;;;;5041091;28;20029;-32
2024/03/16 12:40:06;;;;;;;3.90;0.85;;;11.70;99.90;;;;;;5040418;28;20392;-33
2024/03/16 12:42:35;;;;;;;3.67;0.63;;;11.80;99.90;;;;;;5040453;28;20063;-34
2024/03/16 12:45:01;;;;;;;3.22;0.95;;;11.80;99.90;;;;;;5040372;28;20495;-35
2024/03/16 12:47:29;;;;;;;5.25;0.80;;;11.80;99.90;;;;;;5039844;28;20507;-32
2024/03/16 12:49:55;;;;;;;3.08;0.90;;;11.80;99.90;;;;;;5041070;28;20025;-31
2024/03/16 12:52:24;;;;;;;3.85;1.10;;;11.70;99.90;;;;;;5040017;28;20017;-34